sensor_id;sensor_type;location;lat;lon;timestamp;P1;durP1;ratioP1;P2;durP2;ratioP2
11931;SDS011;6025;51.368;6.788;2023-04-29T00:04:21;30.90;;;22.83;;
11931;SDS011;6025;51.368;6.788;2023-04-29T00:09:12;31.55;;;24.02;;
11931;SDS011;6025;51.368;6.788;2023-04-29T00:14:04;33.17;;;24.23;;
11931;SDS011;6025;51.368;6.788;2023-04-29T00:18:55;34.53;;;24.13;;
11931;SDS011;6025;51.368;6.788;2023-04-29T00:23:50;36.55;;;24.67;;
11931;SDS011;6025;51.368;6.788;2023-04-29T00:28:41;41.17;;;26.75;;
11931;SDS011;6025;51.368;6.788;2023-04-29T00:33:33;41.53;;;25.63;;
11931;SDS011;6025;51.368;6.788;2023-04-29T00:38:24;41.78;;;27.15;;
11931;SDS011;6025;51.368;6.788;2023-04-29T00:43:17;43.15;;;27.90;;
11931;SDS011;6025;51.368;6.788;2023-04-29T00:48:08;40.15;;;26.65;;
11931;SDS011;6025;51.368;6.788;2023-04-29T00:53:00;43.92;;;27.73;;
11931;SDS011;6025;51.368;6.788;2023-04-29T00:57:52;45.45;;;29.52;;
11931;SDS011;6025;51.368;6.788;2023-04-29T01:02:46;48.22;;;30.20;;
11931;SDS011;6025;51.368;6.788;2023-04-29T01:07:41;45.75;;;29.98;;
11931;SDS011;6025;51.368;6.788;2023-04-29T01:12:37;46.40;;;28.38;;
11931;SDS011;6025;51.368;6.788;2023-04-29T01:17:35;52.47;;;30.15;;
11931;SDS011;6025;51.368;6.788;2023-04-29T01:22:29;57.53;;;34.63;;
11931;SDS011;6025;51.368;6.788;2023-04-29T01:27:26;61.50;;;34.88;;
11931;SDS011;6025;51.368;6.788;2023-04-29T01:32:22;57.50;;;33.47;;
11931;SDS011;6025;51.368;6.788;2023-04-29T01:37:24;60.75;;;32.80;;
11931;SDS011;6025;51.368;6.788;2023-04-29T01:42:21;63.22;;;34.20;;
11931;SDS011;6025;51.368;6.788;2023-04-29T01:47:16;60.40;;;32.20;;
11931;SDS011;6025;51.368;6.788;2023-04-29T01:52:08;62.00;;;33.25;;
11931;SDS011;6025;51.368;6.788;2023-04-29T01:57:00;56.88;;;31.80;;
11931;SDS011;6025;51.368;6.788;2023-04-29T02:01:53;57.00;;;31.00;;
11931;SDS011;6025;51.368;6.788;2023-04-29T02:06:45;52.33;;;29.88;;
11931;SDS011;6025;51.368;6.788;2023-04-29T02:11:37;56.53;;;30.63;;
11931;SDS011;6025;51.368;6.788;2023-04-29T02:16:28;57.03;;;30.33;;
11931;SDS011;6025;51.368;6.788;2023-04-29T02:21:21;52.53;;;28.85;;
11931;SDS011;6025;51.368;6.788;2023-04-29T02:26:13;61.05;;;30.27;;
11931;SDS011;6025;51.368;6.788;2023-04-29T02:31:04;54.35;;;30.08;;
11931;SDS011;6025;51.368;6.788;2023-04-29T02:35:56;55.67;;;28.73;;
11931;SDS011;6025;51.368;6.788;2023-04-29T02:40:49;51.45;;;28.50;;
11931;SDS011;6025;51.368;6.788;2023-04-29T02:45:41;55.15;;;30.35;;
11931;SDS011;6025;51.368;6.788;2023-04-29T02:50:33;53.00;;;30.08;;
11931;SDS011;6025;51.368;6.788;2023-04-29T02:55:25;53.67;;;29.52;;
11931;SDS011;6025;51.368;6.788;2023-04-29T03:00:18;54.03;;;30.45;;
11931;SDS011;6025;51.368;6.788;2023-04-29T03:05:10;57.08;;;30.95;;
11931;SDS011;6025;51.368;6.788;2023-04-29T03:10:02;53.70;;;30.63;;
11931;SDS011;6025;51.368;6.788;2023-04-29T03:14:54;54.20;;;31.13;;
11931;SDS011;6025;51.368;6.788;2023-04-29T03:19:47;48.33;;;28.17;;
11931;SDS011;6025;51.368;6.788;2023-04-29T03:24:38;47.92;;;27.25;;
11931;SDS011;6025;51.368;6.788;2023-04-29T03:29:30;48.38;;;27.42;;
11931;SDS011;6025;51.368;6.788;2023-04-29T03:34:22;43.25;;;24.83;;
11931;SDS011;6025;51.368;6.788;2023-04-29T03:39:14;43.15;;;24.63;;
11931;SDS011;6025;51.368;6.788;2023-04-29T03:44:06;35.83;;;22.45;;
11931;SDS011;6025;51.368;6.788;2023-04-29T03:48:58;35.08;;;21.33;;
11931;SDS011;6025;51.368;6.788;2023-04-29T03:53:49;35.17;;;21.48;;
11931;SDS011;6025;51.368;6.788;2023-04-29T03:58:43;33.58;;;21.58;;
11931;SDS011;6025;51.368;6.788;2023-04-29T04:03:35;31.73;;;20.25;;
11931;SDS011;6025;51.368;6.788;2023-04-29T04:08:26;33.33;;;20.55;;
11931;SDS011;6025;51.368;6.788;2023-04-29T04:13:18;30.15;;;19.80;;
11931;SDS011;6025;51.368;6.788;2023-04-29T04:18:11;29.55;;;19.60;;
11931;SDS011;6025;51.368;6.788;2023-04-29T04:23:03;26.85;;;18.15;;
11931;SDS011;6025;51.368;6.788;2023-04-29T04:27:54;25.95;;;17.70;;
11931;SDS011;6025;51.368;6.788;2023-04-29T04:32:46;28.20;;;18.10;;
11931;SDS011;6025;51.368;6.788;2023-04-29T04:37:38;28.85;;;17.92;;
11931;SDS011;6025;51.368;6.788;2023-04-29T04:42:30;26.88;;;18.00;;
11931;SDS011;6025;51.368;6.788;2023-04-29T04:47:21;26.80;;;18.08;;
11931;SDS011;6025;51.368;6.788;2023-04-29T04:52:13;27.40;;;18.73;;
11931;SDS011;6025;51.368;6.788;2023-04-29T04:57:06;27.60;;;18.17;;
11931;SDS011;6025;51.368;6.788;2023-04-29T05:01:58;26.45;;;17.80;;
11931;SDS011;6025;51.368;6.788;2023-04-29T05:06:49;25.65;;;17.05;;
11931;SDS011;6025;51.368;6.788;2023-04-29T05:11:41;24.63;;;17.85;;
11931;SDS011;6025;51.368;6.788;2023-04-29T05:16:33;24.55;;;17.85;;
11931;SDS011;6025;51.368;6.788;2023-04-29T05:21:25;23.40;;;17.08;;
11931;SDS011;6025;51.368;6.788;2023-04-29T05:26:17;26.73;;;17.42;;
11931;SDS011;6025;51.368;6.788;2023-04-29T05:31:08;26.88;;;17.88;;
11931;SDS011;6025;51.368;6.788;2023-04-29T05:36:01;22.30;;;16.63;;
11931;SDS011;6025;51.368;6.788;2023-04-29T05:40:53;24.85;;;16.40;;
11931;SDS011;6025;51.368;6.788;2023-04-29T05:45:45;21.05;;;15.80;;
11931;SDS011;6025;51.368;6.788;2023-04-29T05:50:37;23.30;;;16.75;;
11931;SDS011;6025;51.368;6.788;2023-04-29T05:55:30;24.20;;;16.90;;
11931;SDS011;6025;51.368;6.788;2023-04-29T06:00:21;22.35;;;16.20;;
11931;SDS011;6025;51.368;6.788;2023-04-29T06:05:13;19.52;;;14.93;;
11931;SDS011;6025;51.368;6.788;2023-04-29T06:10:05;21.02;;;15.93;;
11931;SDS011;6025;51.368;6.788;2023-04-29T06:14:59;19.98;;;16.00;;
11931;SDS011;6025;51.368;6.788;2023-04-29T06:19:50;21.17;;;16.08;;
11931;SDS011;6025;51.368;6.788;2023-04-29T06:24:42;19.20;;;15.13;;
11931;SDS011;6025;51.368;6.788;2023-04-29T06:29:33;21.30;;;15.77;;
11931;SDS011;6025;51.368;6.788;2023-04-29T06:34:26;21.42;;;15.65;;
11931;SDS011;6025;51.368;6.788;2023-04-29T06:39:18;19.42;;;15.20;;
11931;SDS011;6025;51.368;6.788;2023-04-29T06:44:09;20.70;;;15.85;;
11931;SDS011;6025;51.368;6.788;2023-04-29T06:49:01;19.42;;;14.80;;
11931;SDS011;6025;51.368;6.788;2023-04-29T06:53:54;21.98;;;14.90;;
11931;SDS011;6025;51.368;6.788;2023-04-29T06:58:45;18.05;;;14.73;;
11931;SDS011;6025;51.368;6.788;2023-04-29T07:03:37;20.65;;;14.25;;
11931;SDS011;6025;51.368;6.788;2023-04-29T07:08:28;17.92;;;14.88;;
11931;SDS011;6025;51.368;6.788;2023-04-29T07:13:21;20.15;;;14.00;;
11931;SDS011;6025;51.368;6.788;2023-04-29T07:18:13;18.50;;;14.82;;
11931;SDS011;6025;51.368;6.788;2023-04-29T07:23:04;19.35;;;14.80;;
11931;SDS011;6025;51.368;6.788;2023-04-29T07:27:56;16.52;;;13.82;;
11931;SDS011;6025;51.368;6.788;2023-04-29T07:32:49;16.73;;;13.85;;
11931;SDS011;6025;51.368;6.788;2023-04-29T07:37:40;20.67;;;14.05;;
11931;SDS011;6025;51.368;6.788;2023-04-29T07:42:32;16.65;;;13.55;;
11931;SDS011;6025;51.368;6.788;2023-04-29T07:47:24;18.20;;;14.43;;
11931;SDS011;6025;51.368;6.788;2023-04-29T07:52:18;16.63;;;13.07;;
11931;SDS011;6025;51.368;6.788;2023-04-29T07:57:09;16.85;;;13.38;;
11931;SDS011;6025;51.368;6.788;2023-04-29T08:02:01;19.92;;;14.05;;
11931;SDS011;6025;51.368;6.788;2023-04-29T08:06:52;17.60;;;14.63;;
11931;SDS011;6025;51.368;6.788;2023-04-29T08:11:45;22.67;;;17.60;;
11931;SDS011;6025;51.368;6.788;2023-04-29T08:16:37;27.98;;;18.48;;
11931;SDS011;6025;51.368;6.788;2023-04-29T08:21:28;29.48;;;19.02;;
11931;SDS011;6025;51.368;6.788;2023-04-29T08:26:21;32.75;;;22.55;;
11931;SDS011;6025;51.368;6.788;2023-04-29T08:31:16;30.13;;;20.35;;
11931;SDS011;6025;51.368;6.788;2023-04-29T08:36:08;26.65;;;18.33;;
11931;SDS011;6025;51.368;6.788;2023-04-29T08:40:59;24.02;;;17.95;;
11931;SDS011;6025;51.368;6.788;2023-04-29T08:45:51;25.75;;;18.85;;
11931;SDS011;6025;51.368;6.788;2023-04-29T08:50:44;26.13;;;18.95;;
11931;SDS011;6025;51.368;6.788;2023-04-29T08:55:39;26.95;;;20.77;;
11931;SDS011;6025;51.368;6.788;2023-04-29T09:00:32;29.38;;;20.73;;
11931;SDS011;6025;51.368;6.788;2023-04-29T09:05:24;27.95;;;21.40;;
11931;SDS011;6025;51.368;6.788;2023-04-29T09:10:18;31.15;;;21.23;;
11931;SDS011;6025;51.368;6.788;2023-04-29T09:15:10;28.98;;;21.70;;
11931;SDS011;6025;51.368;6.788;2023-04-29T09:20:02;30.17;;;22.95;;
11931;SDS011;6025;51.368;6.788;2023-04-29T09:25:12;27.83;;;22.65;;
11931;SDS011;6025;51.368;6.788;2023-04-29T09:30:06;34.40;;;21.98;;
11931;SDS011;6025;51.368;6.788;2023-04-29T09:35:05;25.83;;;21.23;;
11931;SDS011;6025;51.368;6.788;2023-04-29T09:40:18;27.63;;;20.50;;
11931;SDS011;6025;51.368;6.788;2023-04-29T09:45:32;25.73;;;19.42;;
11931;SDS011;6025;51.368;6.788;2023-04-29T09:50:24;25.13;;;19.50;;
11931;SDS011;6025;51.368;6.788;2023-04-29T09:55:16;24.65;;;18.40;;
11931;SDS011;6025;51.368;6.788;2023-04-29T10:00:08;27.35;;;19.17;;
11931;SDS011;6025;51.368;6.788;2023-04-29T10:05:02;26.02;;;17.08;;
11931;SDS011;6025;51.368;6.788;2023-04-29T10:09:54;21.77;;;16.85;;
11931;SDS011;6025;51.368;6.788;2023-04-29T10:14:47;23.48;;;17.35;;
11931;SDS011;6025;51.368;6.788;2023-04-29T10:19:55;21.65;;;16.58;;
11931;SDS011;6025;51.368;6.788;2023-04-29T10:24:51;20.58;;;16.10;;
11931;SDS011;6025;51.368;6.788;2023-04-29T10:29:43;21.20;;;16.17;;
11931;SDS011;6025;51.368;6.788;2023-04-29T10:34:35;20.52;;;15.80;;
11931;SDS011;6025;51.368;6.788;2023-04-29T10:39:30;22.63;;;16.83;;
11931;SDS011;6025;51.368;6.788;2023-04-29T10:44:27;21.98;;;16.73;;
11931;SDS011;6025;51.368;6.788;2023-04-29T10:49:19;20.17;;;16.15;;
11931;SDS011;6025;51.368;6.788;2023-04-29T10:54:12;21.45;;;16.38;;
11931;SDS011;6025;51.368;6.788;2023-04-29T10:59:05;22.08;;;17.48;;
11931;SDS011;6025;51.368;6.788;2023-04-29T11:04:03;23.95;;;17.48;;
11931;SDS011;6025;51.368;6.788;2023-04-29T11:08:59;21.23;;;15.52;;
11931;SDS011;6025;51.368;6.788;2023-04-29T11:13:52;20.52;;;15.32;;
11931;SDS011;6025;51.368;6.788;2023-04-29T11:23:58;21.02;;;15.90;;
11931;SDS011;6025;51.368;6.788;2023-04-29T11:28:51;20.00;;;15.57;;
11931;SDS011;6025;51.368;6.788;2023-04-29T11:33:43;18.02;;;15.35;;
11931;SDS011;6025;51.368;6.788;2023-04-29T11:38:37;16.17;;;14.45;;
11931;SDS011;6025;51.368;6.788;2023-04-29T11:43:30;14.32;;;12.55;;
11931;SDS011;6025;51.368;6.788;2023-04-29T11:48:22;16.15;;;13.68;;
11931;SDS011;6025;51.368;6.788;2023-04-29T11:53:14;16.02;;;13.00;;
11931;SDS011;6025;51.368;6.788;2023-04-29T11:58:07;16.15;;;14.38;;
11931;SDS011;6025;51.368;6.788;2023-04-29T12:02:59;20.15;;;14.98;;
11931;SDS011;6025;51.368;6.788;2023-04-29T12:07:51;19.67;;;15.15;;
11931;SDS011;6025;51.368;6.788;2023-04-29T12:12:42;16.02;;;13.48;;
11931;SDS011;6025;51.368;6.788;2023-04-29T12:17:36;15.25;;;12.55;;
11931;SDS011;6025;51.368;6.788;2023-04-29T12:22:29;14.55;;;11.38;;
11931;SDS011;6025;51.368;6.788;2023-04-29T12:27:21;12.85;;;11.55;;
11931;SDS011;6025;51.368;6.788;2023-04-29T12:32:15;17.67;;;15.82;;
11931;SDS011;6025;51.368;6.788;2023-04-29T12:37:09;18.83;;;15.70;;
11931;SDS011;6025;51.368;6.788;2023-04-29T12:42:02;16.75;;;12.63;;
11931;SDS011;6025;51.368;6.788;2023-04-29T12:46:53;13.93;;;11.77;;
11931;SDS011;6025;51.368;6.788;2023-04-29T12:51:45;11.13;;;9.93;;
11931;SDS011;6025;51.368;6.788;2023-04-29T12:56:38;15.45;;;12.38;;
11931;SDS011;6025;51.368;6.788;2023-04-29T13:01:29;14.65;;;12.13;;
11931;SDS011;6025;51.368;6.788;2023-04-29T13:06:21;14.82;;;12.57;;
11931;SDS011;6025;51.368;6.788;2023-04-29T13:11:13;12.13;;;10.20;;
11931;SDS011;6025;51.368;6.788;2023-04-29T13:16:06;10.43;;;9.40;;
11931;SDS011;6025;51.368;6.788;2023-04-29T13:20:58;9.88;;;8.75;;
11931;SDS011;6025;51.368;6.788;2023-04-29T13:25:50;16.20;;;12.18;;
11931;SDS011;6025;51.368;6.788;2023-04-29T13:30:41;17.05;;;12.13;;
11931;SDS011;6025;51.368;6.788;2023-04-29T13:35:34;28.90;;;14.07;;
11931;SDS011;6025;51.368;6.788;2023-04-29T13:40:27;51.92;;;19.83;;
11931;SDS011;6025;51.368;6.788;2023-04-29T13:45:18;15.75;;;9.20;;
11931;SDS011;6025;51.368;6.788;2023-04-29T13:50:10;10.93;;;9.35;;
11931;SDS011;6025;51.368;6.788;2023-04-29T13:55:03;45.97;;;19.33;;
11931;SDS011;6025;51.368;6.788;2023-04-29T13:59:55;23.58;;;13.65;;
11931;SDS011;6025;51.368;6.788;2023-04-29T14:04:47;17.63;;;9.70;;
11931;SDS011;6025;51.368;6.788;2023-04-29T14:09:38;13.27;;;9.45;;
11931;SDS011;6025;51.368;6.788;2023-04-29T14:14:31;31.95;;;16.52;;
11931;SDS011;6025;51.368;6.788;2023-04-29T14:19:23;15.68;;;12.18;;
11931;SDS011;6025;51.368;6.788;2023-04-29T14:24:14;11.35;;;8.60;;
11931;SDS011;6025;51.368;6.788;2023-04-29T14:29:06;11.70;;;8.48;;
11931;SDS011;6025;51.368;6.788;2023-04-29T14:33:59;11.38;;;8.63;;
11931;SDS011;6025;51.368;6.788;2023-04-29T14:38:51;10.68;;;8.13;;
11931;SDS011;6025;51.368;6.788;2023-04-29T14:43:42;8.65;;;7.60;;
11931;SDS011;6025;51.368;6.788;2023-04-29T14:48:34;8.38;;;7.47;;
11931;SDS011;6025;51.368;6.788;2023-04-29T14:53:27;9.30;;;7.40;;
11931;SDS011;6025;51.368;6.788;2023-04-29T14:58:19;12.70;;;7.05;;
11931;SDS011;6025;51.368;6.788;2023-04-29T15:03:11;8.05;;;7.25;;
11931;SDS011;6025;51.368;6.788;2023-04-29T15:08:02;9.80;;;7.97;;
11931;SDS011;6025;51.368;6.788;2023-04-29T15:12:56;10.15;;;8.05;;
11931;SDS011;6025;51.368;6.788;2023-04-29T15:17:47;10.18;;;8.15;;
11931;SDS011;6025;51.368;6.788;2023-04-29T15:22:39;9.00;;;7.25;;
11931;SDS011;6025;51.368;6.788;2023-04-29T15:27:32;13.90;;;10.50;;
11931;SDS011;6025;51.368;6.788;2023-04-29T15:32:25;12.82;;;8.10;;
11931;SDS011;6025;51.368;6.788;2023-04-29T15:37:20;9.88;;;8.10;;
11931;SDS011;6025;51.368;6.788;2023-04-29T15:42:12;10.30;;;8.23;;
11931;SDS011;6025;51.368;6.788;2023-04-29T15:47:03;10.18;;;7.22;;
11931;SDS011;6025;51.368;6.788;2023-04-29T15:51:56;11.13;;;7.20;;
11931;SDS011;6025;51.368;6.788;2023-04-29T15:56:48;11.75;;;7.18;;
11931;SDS011;6025;51.368;6.788;2023-04-29T16:01:40;10.10;;;6.75;;
11931;SDS011;6025;51.368;6.788;2023-04-29T16:06:32;11.13;;;7.25;;
11931;SDS011;6025;51.368;6.788;2023-04-29T16:11:24;6.80;;;6.10;;
11931;SDS011;6025;51.368;6.788;2023-04-29T16:16:16;9.32;;;7.38;;
11931;SDS011;6025;51.368;6.788;2023-04-29T16:21:08;8.23;;;6.80;;
11931;SDS011;6025;51.368;6.788;2023-04-29T16:25:59;9.52;;;7.35;;
11931;SDS011;6025;51.368;6.788;2023-04-29T16:30:53;10.68;;;7.60;;
11931;SDS011;6025;51.368;6.788;2023-04-29T16:35:44;11.65;;;7.35;;
11931;SDS011;6025;51.368;6.788;2023-04-29T16:40:36;9.75;;;7.32;;
11931;SDS011;6025;51.368;6.788;2023-04-29T16:45:28;10.82;;;7.60;;
11931;SDS011;6025;51.368;6.788;2023-04-29T16:50:21;9.98;;;7.43;;
11931;SDS011;6025;51.368;6.788;2023-04-29T16:55:13;10.02;;;6.15;;
11931;SDS011;6025;51.368;6.788;2023-04-29T17:00:05;10.55;;;6.10;;
11931;SDS011;6025;51.368;6.788;2023-04-29T17:04:59;6.82;;;5.80;;
11931;SDS011;6025;51.368;6.788;2023-04-29T17:09:51;10.30;;;6.25;;
11931;SDS011;6025;51.368;6.788;2023-04-29T17:14:43;7.68;;;5.75;;
11931;SDS011;6025;51.368;6.788;2023-04-29T17:19:35;10.55;;;6.60;;
11931;SDS011;6025;51.368;6.788;2023-04-29T17:24:26;8.55;;;5.55;;
11931;SDS011;6025;51.368;6.788;2023-04-29T17:29:20;8.10;;;5.90;;
11931;SDS011;6025;51.368;6.788;2023-04-29T17:34:11;15.20;;;11.82;;
11931;SDS011;6025;51.368;6.788;2023-04-29T17:39:08;8.77;;;7.18;;
11931;SDS011;6025;51.368;6.788;2023-04-29T17:44:01;9.50;;;8.15;;
11931;SDS011;6025;51.368;6.788;2023-04-29T17:48:55;7.13;;;5.40;;
11931;SDS011;6025;51.368;6.788;2023-04-29T17:53:47;9.13;;;6.72;;
11931;SDS011;6025;51.368;6.788;2023-04-29T17:58:38;9.20;;;6.68;;
11931;SDS011;6025;51.368;6.788;2023-04-29T18:03:30;7.28;;;5.45;;
11931;SDS011;6025;51.368;6.788;2023-04-29T18:08:23;9.80;;;7.45;;
11931;SDS011;6025;51.368;6.788;2023-04-29T18:13:15;8.60;;;5.93;;
11931;SDS011;6025;51.368;6.788;2023-04-29T18:18:07;7.72;;;5.80;;
11931;SDS011;6025;51.368;6.788;2023-04-29T18:22:58;6.57;;;5.32;;
11931;SDS011;6025;51.368;6.788;2023-04-29T18:27:52;5.97;;;5.07;;
11931;SDS011;6025;51.368;6.788;2023-04-29T18:32:44;7.57;;;5.40;;
11931;SDS011;6025;51.368;6.788;2023-04-29T18:37:36;9.40;;;5.53;;
11931;SDS011;6025;51.368;6.788;2023-04-29T18:42:27;7.07;;;5.45;;
11931;SDS011;6025;51.368;6.788;2023-04-29T18:47:21;9.15;;;4.85;;
11931;SDS011;6025;51.368;6.788;2023-04-29T18:52:12;4.78;;;4.38;;
11931;SDS011;6025;51.368;6.788;2023-04-29T18:57:04;6.63;;;3.92;;
11931;SDS011;6025;51.368;6.788;2023-04-29T19:01:55;4.75;;;3.95;;
11931;SDS011;6025;51.368;6.788;2023-04-29T19:06:48;5.00;;;3.90;;
11931;SDS011;6025;51.368;6.788;2023-04-29T19:11:40;4.90;;;4.20;;
11931;SDS011;6025;51.368;6.788;2023-04-29T19:16:31;4.32;;;3.67;;
11931;SDS011;6025;51.368;6.788;2023-04-29T19:21:23;6.70;;;4.05;;
11931;SDS011;6025;51.368;6.788;2023-04-29T19:26:16;5.38;;;3.97;;
11931;SDS011;6025;51.368;6.788;2023-04-29T19:31:07;7.13;;;4.35;;
11931;SDS011;6025;51.368;6.788;2023-04-29T19:36:00;8.60;;;4.47;;
11931;SDS011;6025;51.368;6.788;2023-04-29T19:40:53;7.05;;;4.55;;
11931;SDS011;6025;51.368;6.788;2023-04-29T19:45:47;7.13;;;4.13;;
11931;SDS011;6025;51.368;6.788;2023-04-29T19:50:38;4.85;;;4.00;;
11931;SDS011;6025;51.368;6.788;2023-04-29T20:05:33;6.00;;;4.20;;
11931;SDS011;6025;51.368;6.788;2023-04-29T20:10:25;6.28;;;4.55;;
11931;SDS011;6025;51.368;6.788;2023-04-29T20:15:16;7.43;;;4.60;;
11931;SDS011;6025;51.368;6.788;2023-04-29T20:20:08;5.40;;;4.20;;
11931;SDS011;6025;51.368;6.788;2023-04-29T20:25:01;6.22;;;4.70;;
11931;SDS011;6025;51.368;6.788;2023-04-29T20:29:53;5.28;;;4.30;;
11931;SDS011;6025;51.368;6.788;2023-04-29T20:34:45;6.25;;;4.70;;
11931;SDS011;6025;51.368;6.788;2023-04-29T20:39:37;5.47;;;4.35;;
11931;SDS011;6025;51.368;6.788;2023-04-29T20:44:30;7.63;;;4.40;;
11931;SDS011;6025;51.368;6.788;2023-04-29T20:49:21;7.40;;;5.10;;
11931;SDS011;6025;51.368;6.788;2023-04-29T20:54:13;6.00;;;4.68;;
11931;SDS011;6025;51.368;6.788;2023-04-29T20:59:05;6.68;;;4.70;;
11931;SDS011;6025;51.368;6.788;2023-04-29T21:03:58;6.60;;;4.70;;
11931;SDS011;6025;51.368;6.788;2023-04-29T21:08:49;5.10;;;4.38;;
11931;SDS011;6025;51.368;6.788;2023-04-29T21:13:41;6.55;;;5.07;;
11931;SDS011;6025;51.368;6.788;2023-04-29T21:18:38;7.93;;;5.38;;
11931;SDS011;6025;51.368;6.788;2023-04-29T21:23:31;7.35;;;4.65;;
11931;SDS011;6025;51.368;6.788;2023-04-29T21:28:23;6.93;;;4.55;;
11931;SDS011;6025;51.368;6.788;2023-04-29T21:33:14;7.90;;;4.72;;
11931;SDS011;6025;51.368;6.788;2023-04-29T21:38:06;6.68;;;4.78;;
11931;SDS011;6025;51.368;6.788;2023-04-29T21:42:59;7.97;;;5.68;;
11931;SDS011;6025;51.368;6.788;2023-04-29T21:47:50;6.75;;;4.97;;
11931;SDS011;6025;51.368;6.788;2023-04-29T21:52:44;5.25;;;4.70;;
11931;SDS011;6025;51.368;6.788;2023-04-29T21:57:35;7.93;;;5.78;;
11931;SDS011;6025;51.368;6.788;2023-04-29T22:02:28;7.38;;;5.70;;
11931;SDS011;6025;51.368;6.788;2023-04-29T22:07:27;6.05;;;5.45;;
11931;SDS011;6025;51.368;6.788;2023-04-29T22:12:18;6.75;;;5.72;;
11931;SDS011;6025;51.368;6.788;2023-04-29T22:17:10;6.95;;;6.05;;
11931;SDS011;6025;51.368;6.788;2023-04-29T22:22:03;7.55;;;6.22;;
11931;SDS011;6025;51.368;6.788;2023-04-29T22:26:55;6.70;;;5.72;;
11931;SDS011;6025;51.368;6.788;2023-04-29T22:31:46;8.20;;;5.95;;
11931;SDS011;6025;51.368;6.788;2023-04-29T22:36:38;7.80;;;6.30;;
11931;SDS011;6025;51.368;6.788;2023-04-29T22:41:31;6.72;;;5.72;;
11931;SDS011;6025;51.368;6.788;2023-04-29T22:46:22;7.30;;;6.17;;
11931;SDS011;6025;51.368;6.788;2023-04-29T22:51:14;8.45;;;6.00;;
11931;SDS011;6025;51.368;6.788;2023-04-29T22:56:06;7.13;;;5.90;;
11931;SDS011;6025;51.368;6.788;2023-04-29T23:00:59;6.80;;;6.20;;
11931;SDS011;6025;51.368;6.788;2023-04-29T23:05:51;10.93;;;6.90;;
11931;SDS011;6025;51.368;6.788;2023-04-29T23:10:45;8.30;;;6.20;;
11931;SDS011;6025;51.368;6.788;2023-04-29T23:15:38;7.73;;;6.00;;
11931;SDS011;6025;51.368;6.788;2023-04-29T23:20:31;8.33;;;6.50;;
11931;SDS011;6025;51.368;6.788;2023-04-29T23:25:22;7.20;;;6.43;;
11931;SDS011;6025;51.368;6.788;2023-04-29T23:30:14;9.35;;;7.20;;
11931;SDS011;6025;51.368;6.788;2023-04-29T23:35:06;11.33;;;7.13;;
11931;SDS011;6025;51.368;6.788;2023-04-29T23:40:01;10.65;;;7.15;;
11931;SDS011;6025;51.368;6.788;2023-04-29T23:44:54;9.45;;;6.93;;
11931;SDS011;6025;51.368;6.788;2023-04-29T23:49:46;7.90;;;6.53;;
11931;SDS011;6025;51.368;6.788;2023-04-29T23:54:37;8.48;;;6.28;;
11931;SDS011;6025;51.368;6.788;2023-04-29T23:59:31;8.68;;;6.03;;
